TAF

Looking Back 6 Hours

Worst Weather Category
LocationTimeVisiblityCeilingWeatherWind SpeedWind Gust
KPBF211730Z6NONENONE NA 5NA NA
KPBF211137Z625000Showers NA 6NA NA

  • TAFPBF TAF KPBF 211730Z 2118/2218 VRB05KT P6SM SCT120
          FM220000 VRB02KT P6SM SKC
          FM221500 34006KT P6SM SKC =

  • TAFPBF TAF KPBF 211137Z 2112/2212 VRB06KT P6SM SHRA SCT120 BKN250
          FM211600 33006KT P6SM SCT120 =